Aviation Digital Data Service (ADDS)

Output produced by METARs form (1020 UTC 21 October 2014)
found at http://www.aviationweather.gov/adds/metars/
 
KWWD 211015Z AUTO 00000KT 10SM SCT100 BKN120 11/08 A2988 RMK AO1